Time;durP1;ratioP1;P1;durP2;ratioP2;P2;SDS_P1;SDS_P2;PMS_P1;PMS_P2;Temp;Humidity;BMP_temperature;BMP_pressure;BME280_temperature;BME280_humidity;BME280_pressure;Samples;Min_cycle;Max_cycle;Signal;HPM_P1;HPM_P2
2021/11/09 00:00:26;;;;;;;22.23;8.47;;;7.30;99.90;;;;;;4980347;28;20234;-49
2021/11/09 00:02:53;;;;;;;22.67;8.80;;;7.50;99.90;;;;;;4980380;28;20314;-53
2021/11/09 00:05:24;;;;;;;15.70;8.87;;;7.40;99.90;;;;;;4980881;28;20211;-52
2021/11/09 00:07:55;;;;;;;18.43;8.30;;;7.50;99.90;;;;;;4981314;28;20209;-51
2021/11/09 00:10:27;;;;;;;20.73;8.57;;;7.60;99.90;;;;;;4980132;28;20703;-52
2021/11/09 00:12:59;;;;;;;19.07;8.63;;;7.50;99.90;;;;;;4980418;28;20311;-52
2021/11/09 00:15:27;;;;;;;17.83;8.13;;;7.40;99.90;;;;;;4981785;28;20214;-52
2021/11/09 00:17:57;;;;;;;18.60;8.90;;;7.10;99.90;;;;;;4979003;28;20222;-51
2021/11/09 00:20:26;;;;;;;18.87;8.93;;;7.20;99.90;;;;;;4980891;28;20210;-52
2021/11/09 00:22:55;;;;;;;13.83;8.57;;;7.30;99.90;;;;;;4978639;28;20214;-51
2021/11/09 00:25:23;;;;;;;24.67;8.37;;;7.30;99.90;;;;;;4980922;28;20214;-51
2021/11/09 00:27:50;;;;;;;16.00;8.03;;;7.40;99.90;;;;;;4979696;28;20217;-51
2021/11/09 00:30:19;;;;;;;17.23;9.10;;;7.30;99.90;;;;;;4983018;28;20333;-51
2021/11/09 00:32:46;;;;;;;18.70;8.53;;;7.10;99.90;;;;;;4979160;28;20707;-53
2021/11/09 00:35:24;;;;;;;14.10;8.20;;;7.00;99.90;;;;;;4979923;28;20725;-52
2021/11/09 00:37:52;;;;;;;15.70;8.50;;;6.90;99.90;;;;;;4979215;28;20298;-51
2021/11/09 00:40:23;;;;;;;14.37;7.97;;;6.90;99.90;;;;;;4981421;28;20200;-51
2021/11/09 00:42:50;;;;;;;14.43;8.37;;;7.10;99.90;;;;;;4980411;28;20209;-53
2021/11/09 00:45:17;;;;;;;18.73;8.40;;;7.10;99.90;;;;;;4980237;28;20380;-52
2021/11/09 00:47:44;;;;;;;19.80;8.57;;;7.20;99.90;;;;;;4980706;28;20603;-52
2021/11/09 00:50:13;;;;;;;17.63;8.63;;;7.20;99.90;;;;;;4979735;28;20344;-52
2021/11/09 00:52:41;;;;;;;24.90;8.70;;;7.20;99.90;;;;;;4979846;28;20201;-52
2021/11/09 00:55:09;;;;;;;20.43;8.77;;;7.30;99.90;;;;;;4976021;28;20205;-51
2021/11/09 00:57:37;;;;;;;17.00;8.13;;;7.20;99.90;;;;;;4978902;28;20201;-53
2021/11/09 01:00:07;;;;;;;16.37;8.40;;;7.30;99.90;;;;;;4979104;28;20571;-52
2021/11/09 01:02:34;;;;;;;16.97;8.83;;;7.20;99.90;;;;;;4976904;28;20519;-51
2021/11/09 01:05:02;;;;;;;21.50;8.57;;;7.10;99.90;;;;;;4979784;28;20213;-53
2021/11/09 01:07:29;;;;;;;21.23;8.13;;;7.00;99.90;;;;;;4977460;28;20229;-51
2021/11/09 01:09:56;;;;;;;19.00;8.90;;;6.90;99.90;;;;;;4979210;28;20207;-51
2021/11/09 01:12:23;;;;;;;18.43;8.10;;;7.00;99.90;;;;;;4978098;28;20259;-52
2021/11/09 01:14:50;;;;;;;20.33;8.63;;;7.10;99.90;;;;;;4979652;28;20251;-51
2021/11/09 01:17:17;;;;;;;17.83;8.87;;;7.20;99.90;;;;;;4978338;28;20211;-52
2021/11/09 01:19:44;;;;;;;14.40;7.90;;;7.20;99.90;;;;;;4979028;28;20413;-52
2021/11/09 01:22:11;;;;;;;16.97;8.30;;;7.10;99.90;;;;;;4976998;28;20288;-51
2021/11/09 01:24:38;;;;;;;22.50;8.43;;;7.20;99.90;;;;;;4975567;28;20237;-51
2021/11/09 01:27:06;;;;;;;16.67;8.77;;;7.20;99.90;;;;;;4977017;28;20245;-51
2021/11/09 01:29:33;;;;;;;14.33;8.10;;;7.10;99.90;;;;;;4978001;28;20201;-51
2021/11/09 01:32:01;;;;;;;15.40;7.87;;;7.10;99.90;;;;;;4979512;28;20285;-53
2021/11/09 01:34:27;;;;;;;18.47;8.17;;;7.20;99.90;;;;;;4980554;28;20594;-51
2021/11/09 01:36:55;;;;;;;16.33;7.50;;;7.10;99.90;;;;;;4978294;28;20311;-53
2021/11/09 01:39:21;;;;;;;18.90;8.23;;;6.90;99.90;;;;;;4981091;28;20314;-51
2021/11/09 01:41:49;;;;;;;18.07;8.30;;;7.00;99.90;;;;;;4979570;28;20285;-51
2021/11/09 01:44:16;;;;;;;18.20;7.63;;;6.90;99.90;;;;;;4977883;28;20201;-51
2021/11/09 01:46:44;;;;;;;12.90;7.37;;;7.10;99.90;;;;;;4978428;28;20768;-53
2021/11/09 01:49:11;;;;;;;19.80;8.03;;;6.90;99.90;;;;;;4979440;28;20232;-51
2021/11/09 01:51:38;;;;;;;14.93;7.73;;;6.90;99.90;;;;;;4979294;28;20213;-51
2021/11/09 01:54:06;;;;;;;15.40;8.40;;;6.90;99.90;;;;;;4976873;28;20215;-53
2021/11/09 01:56:35;;;;;;;13.47;7.63;;;7.00;99.90;;;;;;4980410;28;20247;-51
2021/11/09 01:59:03;;;;;;;18.20;8.27;;;7.00;99.90;;;;;;4978324;28;20231;-50
2021/11/09 02:01:30;;;;;;;17.13;7.70;;;7.10;99.90;;;;;;4979015;28;20214;-53
2021/11/09 02:04:01;;;;;;;13.37;7.77;;;7.20;99.90;;;;;;4978799;28;20291;-51
2021/11/09 02:06:29;;;;;;;18.60;7.33;;;7.20;99.90;;;;;;4978066;28;20218;-51
2021/11/09 02:09:17;;;;;;;17.00;7.97;;;7.10;99.90;;;;;;4976680;28;20241;-52
2021/11/09 02:11:44;;;;;;;16.63;7.60;;;6.90;99.90;;;;;;4978781;28;20213;-53
2021/11/09 02:14:11;;;;;;;16.70;8.17;;;6.90;99.90;;;;;;4977907;28;20211;-52
2021/11/09 02:16:38;;;;;;;15.17;7.57;;;6.80;99.90;;;;;;4978755;28;20316;-52
2021/11/09 02:19:06;;;;;;;15.77;7.83;;;6.60;99.90;;;;;;4976972;28;20325;-51
2021/11/09 02:21:33;;;;;;;17.33;8.03;;;6.60;99.90;;;;;;4977431;28;20230;-50
2021/11/09 02:24:00;;;;;;;18.40;8.37;;;6.50;99.90;;;;;;4978530;28;20210;-52
2021/11/09 02:26:27;;;;;;;18.73;7.50;;;6.40;99.90;;;;;;4977659;28;20223;-53
2021/11/09 02:28:56;;;;;;;17.83;8.07;;;6.20;99.90;;;;;;4979046;28;20209;-51
2021/11/09 02:31:26;;;;;;;12.17;7.73;;;6.10;99.90;;;;;;4979351;28;20202;-51
2021/11/09 02:33:53;;;;;;;13.47;7.80;;;6.20;99.90;;;;;;4978415;28;20228;-51
2021/11/09 02:36:20;;;;;;;18.00;7.83;;;6.40;99.90;;;;;;4977238;28;20222;-51
2021/11/09 02:38:48;;;;;;;18.17;7.73;;;6.40;99.90;;;;;;4978237;28;20275;-51
2021/11/09 02:41:15;;;;;;;17.37;7.87;;;6.40;99.90;;;;;;4976155;28;20268;-52
2021/11/09 02:43:43;;;;;;;14.37;8.37;;;6.60;99.90;;;;;;4977162;28;20297;-52
2021/11/09 02:49:01;;;;;;;19.63;7.67;;;6.60;99.90;;;;;;4976954;28;20259;-51
2021/11/09 02:51:44;;;;;;;16.10;7.90;;;6.60;99.90;;;;;;4978060;28;20313;-52
2021/11/09 02:57:00;;;;;;;19.67;7.67;;;6.40;99.90;;;;;;4978611;28;20219;-51
2021/11/09 03:02:04;;;;;;;16.13;7.47;;;6.20;99.90;;;;;;4981510;28;20297;-53
2021/11/09 03:07:11;;;;;;;14.50;8.37;;;6.10;99.90;;;;;;4980506;28;20201;-51
2021/11/09 03:10:15;;;;;;;13.63;8.10;;;6.10;99.90;;;;;;4980664;28;20210;-53
2021/11/09 03:12:37;;;;;;;22.10;8.30;;;6.10;99.90;;;;;;4979539;28;20234;-52
2021/11/09 03:15:08;;;;;;;20.80;8.10;;;6.20;99.90;;;;;;4981291;28;20202;-51
2021/11/09 03:17:44;;;;;;;18.03;8.07;;;6.20;99.90;;;;;;4981848;28;20268;-51
2021/11/09 03:20:18;;;;;;;17.93;8.43;;;6.20;99.90;;;;;;4982866;28;20351;-52
2021/11/09 03:44:58;;;;;;;18.20;9.50;;;6.10;99.90;;;;;;4982205;28;20197;-52
2021/11/09 03:47:25;;;;;;;21.60;10.37;;;6.30;99.90;;;;;;4980977;28;20319;-52
2021/11/09 03:49:53;;;;;;;20.87;9.70;;;6.20;99.90;;;;;;4982040;28;20231;-51
2021/11/09 03:52:25;;;;;;;20.10;9.37;;;6.20;99.90;;;;;;4979494;28;20268;-51
2021/11/09 03:55:00;;;;;;;20.37;9.93;;;6.10;99.90;;;;;;4981918;28;20282;-51
2021/11/09 03:57:34;;;;;;;18.73;10.63;;;6.10;99.90;;;;;;4980513;28;20250;-51
2021/11/09 04:05:12;;;;;;;24.03;10.23;;;6.10;99.90;;;;;;4982439;28;20380;-52
2021/11/09 04:07:48;;;;;;;22.60;11.23;;;6.00;99.90;;;;;;4981561;28;20209;-51
2021/11/09 04:18:04;;;;;;;24.43;12.10;;;6.30;99.90;;;;;;4981376;28;20321;-53
2021/11/09 04:20:43;;;;;;;19.27;10.37;;;6.20;99.90;;;;;;4982114;28;20203;-52
2021/11/09 04:43:46;;;;;;;20.13;10.40;;;6.20;99.90;;;;;;4981256;28;20192;-53
2021/11/09 05:11:39;;;;;;;31.07;10.90;;;6.00;99.90;;;;;;4980024;28;20216;-51
2021/11/09 05:14:11;;;;;;;17.23;10.87;;;5.80;99.90;;;;;;4979592;28;20308;-51
2021/11/09 05:16:40;;;;;;;25.73;10.73;;;6.00;99.90;;;;;;4981490;28;20346;-52
2021/11/09 05:19:09;;;;;;;22.43;11.13;;;6.20;99.90;;;;;;4982025;28;20226;-53
2021/11/09 05:21:37;;;;;;;17.40;10.27;;;6.10;99.90;;;;;;4979248;28;20240;-52
2021/11/09 05:24:04;;;;;;;18.63;10.53;;;6.10;99.90;;;;;;4980883;28;20877;-51
2021/11/09 05:26:31;;;;;;;24.03;11.70;;;6.10;99.90;;;;;;4980114;28;20681;-51
2021/11/09 05:28:58;;;;;;;18.33;10.57;;;6.20;99.90;;;;;;4979622;28;20209;-53
2021/11/09 05:31:25;;;;;;;23.70;10.97;;;6.10;99.90;;;;;;4960442;28;20301;-52
2021/11/09 05:33:56;;;;;;;21.37;12.07;;;6.00;99.90;;;;;;4979561;28;20202;-51
2021/11/09 05:36:29;;;;;;;23.27;10.37;;;5.90;99.90;;;;;;4981818;28;20684;-53
2021/11/09 05:39:02;;;;;;;25.43;10.93;;;5.90;99.90;;;;;;4958883;28;20208;-52
2021/11/09 05:41:33;;;;;;;23.90;10.73;;;5.80;99.90;;;;;;4980644;28;20229;-51
2021/11/09 05:44:00;;;;;;;26.77;11.17;;;5.90;99.90;;;;;;4978680;28;20205;-53
2021/11/09 05:46:27;;;;;;;30.13;11.63;;;5.90;99.90;;;;;;4978301;28;20714;-52
2021/11/09 05:48:54;;;;;;;23.23;11.07;;;5.80;99.90;;;;;;4979292;28;20258;-51
2021/11/09 05:51:23;;;;;;;25.80;10.83;;;6.00;99.90;;;;;;4979420;28;20208;-50
2021/11/09 05:53:49;;;;;;;22.83;10.43;;;6.00;99.90;;;;;;4982051;28;20215;-51
2021/11/09 05:56:17;;;;;;;23.57;11.30;;;6.10;99.90;;;;;;4979387;28;20213;-52
2021/11/09 05:58:44;;;;;;;22.00;9.83;;;6.20;99.90;;;;;;4976913;28;20203;-52
2021/11/09 06:01:11;;;;;;;19.23;10.03;;;6.10;99.90;;;;;;4978406;28;20209;-51
2021/11/09 06:03:38;;;;;;;24.23;10.23;;;6.10;99.90;;;;;;4977335;28;20265;-53
2021/11/09 06:06:05;;;;;;;26.77;10.13;;;6.10;99.90;;;;;;4979514;28;20213;-53
2021/11/09 06:08:32;;;;;;;18.93;10.23;;;6.00;99.90;;;;;;4977716;28;20207;-51
2021/11/09 06:10:59;;;;;;;23.87;10.80;;;5.90;99.90;;;;;;4976680;28;20236;-51
2021/11/09 06:13:26;;;;;;;18.40;10.00;;;5.90;99.90;;;;;;4979005;28;20202;-51
2021/11/09 06:15:53;;;;;;;24.53;10.67;;;5.80;99.90;;;;;;4978068;28;20210;-52
2021/11/09 06:18:20;;;;;;;24.40;11.40;;;5.80;99.90;;;;;;4977127;28;20238;-51
2021/11/09 06:20:47;;;;;;;25.30;11.20;;;5.80;99.90;;;;;;4977358;28;20233;-54
2021/11/09 06:23:14;;;;;;;22.07;11.60;;;5.70;99.90;;;;;;4979367;28;20214;-52
2021/11/09 06:25:43;;;;;;;21.40;10.77;;;5.70;99.90;;;;;;4978983;28;20199;-51
2021/11/09 06:28:12;;;;;;;27.97;11.17;;;5.70;99.90;;;;;;4978815;28;20203;-52
2021/11/09 06:30:39;;;;;;;31.77;11.40;;;5.80;99.90;;;;;;4977954;28;20203;-51
2021/11/09 06:33:06;;;;;;;25.00;10.40;;;6.00;99.90;;;;;;4977416;28;20282;-52
2021/11/09 06:35:33;;;;;;;22.27;11.60;;;5.90;99.90;;;;;;4960649;28;20206;-52
2021/11/09 06:38:00;;;;;;;26.57;11.60;;;5.70;99.90;;;;;;4978308;28;20774;-51
2021/11/09 06:40:27;;;;;;;24.60;11.50;;;5.80;99.90;;;;;;4977252;28;20702;-53
2021/11/09 06:42:54;;;;;;;22.17;11.20;;;5.80;99.90;;;;;;4976812;28;20554;-52
2021/11/09 06:45:21;;;;;;;25.20;11.17;;;5.60;99.90;;;;;;4978257;28;20244;-52
2021/11/09 06:47:51;;;;;;;23.33;10.97;;;5.80;99.90;;;;;;4976543;28;20234;-53
2021/11/09 06:50:21;;;;;;;22.77;11.10;;;5.80;99.90;;;;;;4961725;28;20213;-51
2021/11/09 06:52:48;;;;;;;21.57;11.00;;;5.90;99.90;;;;;;4976307;28;20330;-53
2021/11/09 06:55:15;;;;;;;23.90;11.37;;;5.90;99.90;;;;;;4977900;28;20260;-50
2021/11/09 06:57:44;;;;;;;23.03;10.13;;;6.00;99.90;;;;;;4976713;28;20252;-50
2021/11/09 07:00:15;;;;;;;23.73;11.40;;;5.90;99.90;;;;;;4973721;28;20206;-53
2021/11/09 07:02:42;;;;;;;23.20;10.77;;;5.80;99.90;;;;;;4978609;28;20700;-52
2021/11/09 07:05:09;;;;;;;21.30;10.20;;;5.70;99.90;;;;;;4978659;28;20952;-53
2021/11/09 07:07:36;;;;;;;29.60;11.03;;;5.70;99.90;;;;;;4978945;28;20203;-53
2021/11/09 07:10:05;;;;;;;23.77;11.50;;;5.70;99.90;;;;;;4977719;28;20253;-51
2021/11/09 07:12:32;;;;;;;23.53;11.27;;;5.70;99.90;;;;;;4977370;28;20250;-51
2021/11/09 07:14:58;;;;;;;24.37;11.27;;;5.70;99.90;;;;;;4978029;28;20683;-52
2021/11/09 07:17:25;;;;;;;27.30;11.80;;;5.70;99.90;;;;;;4961146;28;20221;-54
2021/11/09 07:19:53;;;;;;;21.40;11.90;;;5.80;99.90;;;;;;4979806;28;20739;-51
2021/11/09 07:22:21;;;;;;;26.97;13.00;;;5.80;99.90;;;;;;4978362;28;20245;-52
2021/11/09 07:24:48;;;;;;;25.70;11.90;;;5.80;99.90;;;;;;4977490;28;20677;-51
2021/11/09 07:27:15;;;;;;;24.97;12.83;;;5.70;99.90;;;;;;4977504;28;20818;-51
2021/11/09 07:29:50;;;;;;;29.63;11.93;;;5.80;99.90;;;;;;4978014;28;20209;-53
2021/11/09 07:32:18;;;;;;;25.83;11.33;;;5.90;99.90;;;;;;4976914;28;20282;-52
2021/11/09 07:34:45;;;;;;;25.07;11.13;;;6.00;99.90;;;;;;4979153;28;20682;-52
2021/11/09 07:37:12;;;;;;;24.63;10.67;;;6.10;99.90;;;;;;4978339;28;20554;-52
2021/11/09 07:39:40;;;;;;;23.33;10.67;;;6.20;99.90;;;;;;4978329;28;20337;-52
2021/11/09 07:42:07;;;;;;;24.90;10.63;;;6.40;99.90;;;;;;4978250;28;20766;-52
2021/11/09 07:44:35;;;;;;;17.60;10.87;;;6.20;99.90;;;;;;4978604;28;20239;-52
2021/11/09 07:47:03;;;;;;;22.50;9.87;;;6.20;99.90;;;;;;4983394;28;20205;-52
2021/11/09 07:49:31;;;;;;;20.17;10.80;;;6.20;99.90;;;;;;4982324;28;20653;-51
2021/11/09 07:51:59;;;;;;;22.63;10.40;;;6.20;99.90;;;;;;4982671;28;20254;-52
2021/11/09 07:54:34;;;;;;;23.13;10.97;;;6.20;99.90;;;;;;4980788;28;20209;-53
2021/11/09 07:57:04;;;;;;;24.50;10.13;;;6.30;99.90;;;;;;4980194;28;20261;-51
2021/11/09 07:59:37;;;;;;;23.40;10.40;;;6.10;99.90;;;;;;4980235;28;20380;-51
2021/11/09 08:02:13;;;;;;;24.47;10.73;;;6.20;99.90;;;;;;4977781;28;20577;-53
2021/11/09 08:04:48;;;;;;;21.90;10.60;;;6.40;99.90;;;;;;4981327;28;20206;-52
2021/11/09 08:07:22;;;;;;;16.90;9.33;;;6.40;99.90;;;;;;4980076;28;20528;-53
2021/11/09 08:09:49;;;;;;;23.63;10.60;;;6.40;99.90;;;;;;4980344;28;20316;-52
2021/11/09 08:12:16;;;;;;;21.33;10.27;;;6.40;99.90;;;;;;4980779;28;20635;-52
2021/11/09 08:14:43;;;;;;;26.20;10.40;;;6.40;99.90;;;;;;4980410;28;20646;-52
2021/11/09 08:17:10;;;;;;;19.93;10.93;;;6.40;99.90;;;;;;4976183;28;20229;-51
2021/11/09 08:19:37;;;;;;;19.33;9.30;;;6.50;99.90;;;;;;4958287;28;20289;-52
2021/11/09 08:22:04;;;;;;;16.93;10.53;;;6.50;99.90;;;;;;4978647;28;20238;-52
2021/11/09 08:24:31;;;;;;;29.27;10.93;;;6.50;99.90;;;;;;4979768;28;20291;-52
2021/11/09 08:26:59;;;;;;;26.50;10.93;;;6.60;99.90;;;;;;4976809;28;20564;-51
2021/11/09 08:29:26;;;;;;;24.93;11.13;;;6.70;99.90;;;;;;4974603;28;20234;-53
2021/11/09 08:31:57;;;;;;;25.67;10.70;;;6.80;99.90;;;;;;4980482;28;20201;-52
2021/11/09 08:34:26;;;;;;;28.07;10.80;;;6.80;99.90;;;;;;4980805;28;20198;-52
2021/11/09 08:36:55;;;;;;;22.77;11.30;;;6.80;99.90;;;;;;4977552;28;20350;-51
2021/11/09 08:39:27;;;;;;;21.67;11.53;;;6.90;99.90;;;;;;4976769;28;20668;-51
2021/11/09 08:42:11;;;;;;;28.70;13.23;;;6.90;99.90;;;;;;4959923;28;20216;-53
2021/11/09 08:45:27;;;;;;;25.17;12.33;;;6.90;99.90;;;;;;4977577;28;20194;-51
2021/11/09 08:47:32;;;;;;;25.97;11.83;;;7.00;99.90;;;;;;4967795;28;20281;-51
2021/11/09 08:50:00;;;;;;;27.43;12.13;;;7.10;99.90;;;;;;4980837;28;20616;-51
2021/11/09 08:52:30;;;;;;;25.80;12.47;;;7.00;99.90;;;;;;4979756;28;20252;-50
2021/11/09 08:55:12;;;;;;;26.27;12.00;;;7.30;99.90;;;;;;4977173;28;20671;-51
2021/11/09 09:05:57;;;;;;;26.87;14.20;;;8.40;99.90;;;;;;4979814;28;20201;-52
2021/11/09 09:08:24;;;;;;;28.90;17.83;;;8.70;1.00;;;;;;4978888;28;20234;-53
2021/11/09 09:10:50;;;;;;;41.67;23.70;;;8.90;1.00;;;;;;4978731;28;20240;-52
2021/11/09 09:13:18;;;;;;;48.37;28.90;;;8.90;1.00;;;;;;4978292;28;20308;-51
2021/11/09 09:15:45;;;;;;;48.97;33.53;;;9.20;1.00;;;;;;4977660;28;20241;-52
2021/11/09 09:18:16;;;;;;;51.97;34.97;;;8.90;1.00;;;;;;4977425;28;20356;-52
2021/11/09 09:20:51;;;;;;;53.90;31.30;;;9.00;1.00;;;;;;4975360;28;20285;-52
2021/11/09 09:23:22;;;;;;;53.27;35.67;;;9.00;1.00;;;;;;4976908;28;20302;-51
2021/11/09 09:26:08;;;;;;;50.23;31.57;;;9.20;1.00;;;;;;4977826;28;20237;-51
2021/11/09 09:53:58;;;;;;;31.90;16.83;;;9.90;1.00;;;;;;4977116;28;20326;-51
2021/11/09 09:56:41;;;;;;;28.57;16.23;;;10.10;1.00;;;;;;4976443;28;20288;-51
2021/11/09 09:59:10;;;;;;;21.83;13.30;;;10.20;1.00;;;;;;4977599;28;20313;-50
2021/11/09 10:02:03;;;;;;;21.53;11.60;;;10.30;1.00;;;;;;4978770;28;20293;-51
2021/11/09 10:04:38;;;;;;;22.77;12.20;;;10.40;99.90;;;;;;4974433;28;20277;-53
2021/11/09 10:07:05;;;;;;;25.93;10.90;;;10.50;99.90;;;;;;4972076;28;20667;-51
2021/11/09 10:09:42;;;;;;;24.13;9.80;;;10.50;99.90;;;;;;4979801;28;20261;-51
2021/11/09 10:12:21;;;;;;;18.73;8.97;;;10.40;99.90;;;;;;4973338;28;20244;-51
2021/11/09 10:14:52;;;;;;;15.97;8.13;;;10.30;1.00;;;;;;4973958;28;20260;-50
2021/11/09 10:17:25;;;;;;;18.33;8.53;;;10.60;99.90;;;;;;4977182;28;20288;-50
2021/11/09 10:19:57;;;;;;;22.20;10.17;;;10.50;99.90;;;;;;4977930;28;20331;-51
2021/11/09 10:22:28;;;;;;;17.93;9.10;;;10.70;99.90;;;;;;4974803;28;20322;-51
2021/11/09 10:25:06;;;;;;;18.13;8.40;;;11.20;99.90;;;;;;4976034;28;20226;-50
2021/11/09 10:27:35;;;;;;;21.33;8.67;;;11.00;99.90;;;;;;4976662;28;20625;-53
2021/11/09 10:30:18;;;;;;;15.67;9.23;;;11.00;99.90;;;;;;4976329;28;20330;-51
2021/11/09 10:32:46;;;;;;;21.17;8.73;;;11.00;1.00;;;;;;4974607;28;20299;-50
2021/11/09 10:35:15;;;;;;;15.17;8.20;;;11.20;99.90;;;;;;4976841;28;20865;-50
2021/11/09 10:37:48;;;;;;;17.60;8.30;;;11.10;1.00;;;;;;4976406;28;20237;-51
2021/11/09 10:40:28;;;;;;;19.63;8.03;;;11.10;65.80;;;;;;4976608;28;20262;-50
2021/11/09 10:42:59;;;;;;;18.70;7.60;;;11.30;1.00;;;;;;4976367;28;20317;-53
2021/11/09 10:45:30;;;;;;;19.37;7.17;;;11.30;99.90;;;;;;4977169;28;20237;-52
2021/11/09 10:48:01;;;;;;;15.97;7.83;;;11.20;1.00;;;;;;4975040;28;20268;-51
2021/11/09 10:50:38;;;;;;;15.23;7.10;;;11.30;1.00;;;;;;4976492;28;20288;-53
2021/11/09 11:04:06;;;;;;;16.57;6.97;;;12.10;1.00;;;;;;4977167;28;20635;-51
2021/11/09 11:06:38;;;;;;;17.87;7.60;;;12.00;1.00;;;;;;4977039;28;20702;-52
2021/11/09 11:09:11;;;;;;;17.73;7.43;;;11.80;1.00;;;;;;4977448;28;20305;-52
2021/11/09 11:12:03;;;;;;;17.10;6.60;;;11.80;1.00;;;;;;4975084;28;20273;-51
2021/11/09 11:14:31;;;;;;;16.90;7.43;;;11.60;1.00;;;;;;4976020;28;20318;-51
2021/11/09 11:17:03;;;;;;;17.07;7.57;;;11.60;88.30;;;;;;4979404;28;20210;-52
2021/11/09 11:19:33;;;;;;;12.03;6.97;;;11.40;1.00;;;;;;4979405;28;20261;-51
2021/11/09 11:22:02;;;;;;;20.63;8.63;;;11.30;99.90;;;;;;4977366;28;20257;-51
2021/11/09 11:24:29;;;;;;;12.70;5.87;;;11.40;99.90;;;;;;4980867;28;20226;-51
2021/11/09 11:26:58;;;;;;;17.17;6.73;;;11.30;1.00;;;;;;4978397;28;20886;-51
2021/11/09 11:29:27;;;;;;;12.80;7.03;;;11.40;1.00;;;;;;4979274;28;20234;-50
2021/11/09 11:31:55;;;;;;;16.63;6.33;;;11.40;99.90;;;;;;4980741;28;20240;-53
2021/11/09 11:34:26;;;;;;;19.07;7.30;;;11.40;90.80;;;;;;4961966;28;20663;-51
2021/11/09 11:36:54;;;;;;;16.07;6.30;;;11.60;76.30;;;;;;4982627;28;20649;-50
2021/11/09 11:39:27;;;;;;;18.10;7.00;;;12.00;99.90;;;;;;4981383;28;20614;-52
2021/11/09 11:41:57;;;;;;;16.50;5.63;;;12.10;99.90;;;;;;4981102;28;20220;-51
2021/11/09 11:44:37;;;;;;;15.20;6.97;;;12.20;1.00;;;;;;4979590;28;20704;-51
2021/11/09 11:47:18;;;;;;;21.30;5.63;;;12.20;1.00;;;;;;4979588;28;20206;-50
2021/11/09 11:49:49;;;;;;;14.57;5.57;;;12.30;99.90;;;;;;4983023;28;20202;-50
2021/11/09 11:52:30;;;;;;;14.17;5.87;;;12.20;1.00;;;;;;4981926;28;20273;-52
2021/11/09 11:55:06;;;;;;;13.33;5.27;;;12.10;1.00;;;;;;4981290;28;20208;-51
2021/11/09 11:58:03;;;;;;;15.30;5.60;;;12.40;99.90;;;;;;4979479;28;20615;-50
2021/11/09 12:00:40;;;;;;;16.80;6.10;;;12.40;1.00;;;;;;4952476;28;20642;-53
2021/11/09 12:03:23;;;;;;;14.37;6.30;;;12.50;1.00;;;;;;4974852;28;20294;-51
2021/11/09 12:05:52;;;;;;;12.27;5.83;;;13.00;1.00;;;;;;4979843;28;20211;-51
2021/11/09 12:08:37;;;;;;;17.10;6.47;;;13.10;1.00;;;;;;4980248;28;20203;-50
2021/11/09 12:11:06;;;;;;;11.87;5.67;;;13.40;99.90;;;;;;4978657;28;20579;-52
2021/11/09 12:13:54;;;;;;;18.90;6.17;;;13.70;1.00;;;;;;4978862;28;20226;-51
2021/11/09 12:16:52;;;;;;;9.87;5.40;;;13.80;1.00;;;;;;4981541;28;20656;-51
2021/11/09 12:19:34;;;;;;;18.77;6.07;;;14.20;1.00;;;;;;4978823;28;20295;-51
2021/11/09 12:22:22;;;;;;;10.70;5.10;;;14.30;1.00;;;;;;4980752;28;20539;-51
2021/11/09 12:25:00;;;;;;;16.97;6.30;;;14.80;1.00;;;;;;4981589;28;20210;-52
2021/11/09 12:27:54;;;;;;;14.57;6.27;;;15.00;99.90;;;;;;4978607;28;20203;-51
2021/11/09 12:30:36;;;;;;;14.37;6.00;;;14.70;99.90;;;;;;4980182;28;20245;-51
2021/11/09 12:33:06;;;;;;;17.47;5.87;;;14.60;99.90;;;;;;4980075;28;20683;-50
2021/11/09 12:35:39;;;;;;;12.33;6.57;;;13.90;99.90;;;;;;4977660;28;20213;-49
2021/11/09 12:38:13;;;;;;;13.43;6.00;;;13.80;1.00;;;;;;4960776;28;20220;-51
2021/11/09 12:40:54;;;;;;;12.30;5.80;;;13.60;1.00;;;;;;4968716;28;20667;-50
2021/11/09 12:43:32;;;;;;;12.43;6.53;;;13.20;99.90;;;;;;4974820;28;22752;-51
2021/11/09 12:46:06;;;;;;;12.47;5.60;;;13.30;99.90;;;;;;4979039;28;20234;-49
2021/11/09 12:48:40;;;;;;;15.93;6.63;;;13.00;1.00;;;;;;4980431;28;20812;-49
2021/11/09 12:51:10;;;;;;;16.90;5.70;;;12.70;1.00;;;;;;4976213;28;20218;-50
2021/11/09 12:53:45;;;;;;;11.93;6.07;;;12.60;99.90;;;;;;4975265;28;20210;-50
2021/11/09 12:56:18;;;;;;;14.93;6.40;;;12.50;1.00;;;;;;4974450;28;20207;-50
2021/11/09 12:58:59;;;;;;;13.20;5.93;;;12.40;1.00;;;;;;4979952;28;20308;-50
2021/11/09 13:01:35;;;;;;;12.57;5.43;;;12.30;99.90;;;;;;4977557;28;20833;-51
2021/11/09 13:09:58;;;;;;;12.27;5.67;;;12.50;99.90;;;;;;4980108;28;20203;-50
2021/11/09 13:12:27;;;;;;;15.60;6.23;;;12.50;1.00;;;;;;4978107;28;20208;-50
2021/11/09 13:15:19;;;;;;;14.03;5.27;;;12.50;1.00;;;;;;4979117;28;20563;-50
2021/11/09 13:17:51;;;;;;;13.93;5.00;;;12.30;32.20;;;;;;4979711;28;20722;-50
2021/11/09 13:20:23;;;;;;;14.07;5.00;;;12.40;99.90;;;;;;4976124;28;20250;-51
2021/11/09 13:23:11;;;;;;;15.83;4.73;;;12.30;37.50;;;;;;4976638;28;20352;-51
2021/11/09 13:25:40;;;;;;;13.97;5.43;;;12.10;84.30;;;;;;4976848;28;20613;-51
2021/11/09 13:28:22;;;;;;;13.57;4.77;;;12.10;99.90;;;;;;4974536;28;20264;-50
2021/11/09 13:30:53;;;;;;;10.90;4.90;;;12.10;27.80;;;;;;4975394;28;20242;-50
2021/11/09 13:33:22;;;;;;;15.20;5.37;;;12.10;99.90;;;;;;4978597;28;20309;-51
2021/11/09 13:35:49;;;;;;;15.00;5.13;;;12.20;99.90;;;;;;4980096;28;20699;-51
2021/11/09 13:38:23;;;;;;;15.83;5.53;;;12.10;99.90;;;;;;4977026;28;20594;-50
2021/11/09 13:40:59;;;;;;;11.77;5.33;;;12.20;99.90;;;;;;4977270;28;20209;-49
2021/11/09 13:43:33;;;;;;;15.27;5.10;;;12.30;20.70;;;;;;4978126;28;20202;-51
2021/11/09 13:46:07;;;;;;;16.50;5.77;;;12.20;99.90;;;;;;4978797;28;20237;-50
2021/11/09 13:48:36;;;;;;;14.87;5.67;;;12.10;85.30;;;;;;4976625;28;20208;-51
2021/11/09 13:51:25;;;;;;;14.57;5.03;;;12.10;99.90;;;;;;4976097;28;20337;-50
2021/11/09 13:53:58;;;;;;;14.00;4.90;;;12.10;99.90;;;;;;4978340;28;20214;-51
2021/11/09 13:56:27;;;;;;;12.87;4.77;;;12.20;1.00;;;;;;4976101;28;20207;-51
2021/11/09 13:58:56;;;;;;;14.47;5.40;;;12.10;1.00;;;;;;4974485;28;20666;-50
2021/11/09 14:01:33;;;;;;;17.93;5.03;;;12.10;1.00;;;;;;4979226;28;20657;-51
2021/11/09 14:04:10;;;;;;;12.87;5.13;;;12.20;1.00;;;;;;4975924;28;20290;-51
2021/11/09 14:10:03;;;;;;;14.27;5.13;;;12.20;99.90;;;;;;4974646;28;20211;-50
2021/11/09 14:15:38;;;;;;;12.37;5.27;;;12.20;1.00;;;;;;4976037;28;20215;-51
2021/11/09 14:18:15;;;;;;;17.13;5.90;;;12.20;1.00;;;;;;4977702;28;20705;-51
2021/11/09 14:20:52;;;;;;;17.83;5.97;;;12.30;99.90;;;;;;4934705;28;1153449;-51
2021/11/09 14:23:31;;;;;;;17.33;5.67;;;12.50;99.90;;;;;;4973133;28;20294;-50
2021/11/09 14:25:59;;;;;;;13.50;5.13;;;12.60;18.00;;;;;;4980071;28;20268;-50
2021/11/09 14:28:34;;;;;;;15.17;5.20;;;12.70;1.00;;;;;;4977459;28;20262;-50
2021/11/09 14:31:20;;;;;;;14.13;5.60;;;12.70;1.00;;;;;;4976412;28;20336;-52
2021/11/09 14:33:51;;;;;;;10.70;5.20;;;12.70;1.00;;;;;;4976777;28;20215;-51
2021/11/09 14:36:28;;;;;;;12.17;5.07;;;12.80;1.00;;;;;;4978112;28;20204;-52
2021/11/09 14:39:12;;;;;;;14.50;5.17;;;12.60;1.00;;;;;;4972210;28;20233;-51
2021/11/09 14:42:11;;;;;;;10.90;5.13;;;12.60;1.00;;;;;;4980711;28;20206;-50
2021/11/09 14:48:30;;;;;;;16.07;5.60;;;12.40;99.90;;;;;;4976662;28;20221;-51
2021/11/09 14:51:05;;;;;;;16.57;6.50;;;12.30;1.00;;;;;;4988757;28;20235;-49
2021/11/09 14:54:00;;;;;;;16.37;6.27;;;12.30;99.90;;;;;;4990524;28;20215;-52
2021/11/09 14:56:32;;;;;;;14.70;6.27;;;12.30;99.90;;;;;;4988956;28;20209;-49
2021/11/09 14:59:19;;;;;;;18.80;5.90;;;12.40;99.90;;;;;;4985880;28;20226;-49
2021/11/09 15:07:21;;;;;;;14.67;6.20;;;12.30;99.90;;;;;;4989627;28;20198;-50
2021/11/09 15:26:28;;;;;;;18.00;5.27;;;12.00;98.10;;;;;;4987807;28;20201;-50
2021/11/09 15:29:07;;;;;;;19.77;5.37;;;12.00;1.00;;;;;;4990756;28;20304;-51
2021/11/09 15:31:38;;;;;;;11.07;4.90;;;12.10;1.00;;;;;;4986813;28;20253;-51
2021/11/09 15:34:12;;;;;;;14.07;4.83;;;12.30;99.90;;;;;;4986721;28;20202;-50
2021/11/09 15:39:16;;;;;;;11.43;4.97;;;12.10;1.00;;;;;;4986307;28;20211;-50
2021/11/09 15:41:44;;;;;;;16.50;5.33;;;12.10;99.20;;;;;;4988300;28;20198;-50
2021/11/09 15:44:13;;;;;;;10.23;4.50;;;12.00;1.00;;;;;;4985726;28;20202;-53
2021/11/09 15:46:40;;;;;;;17.17;5.60;;;12.00;1.00;;;;;;4985714;28;20774;-51
2021/11/09 15:49:08;;;;;;;14.43;4.67;;;12.10;99.90;;;;;;4988722;28;20233;-51
2021/11/09 15:51:35;;;;;;;12.67;4.67;;;12.10;1.00;;;;;;4986429;28;20226;-52
2021/11/09 15:54:02;;;;;;;11.10;4.50;;;12.20;9.00;;;;;;4992647;28;20285;-52
2021/11/09 15:56:29;;;;;;;15.93;4.60;;;12.20;37.60;;;;;;4989779;28;20387;-52
2021/11/09 15:58:56;;;;;;;15.10;5.10;;;12.20;99.90;;;;;;4991124;28;20198;-51